sensor_id;sensor_type;location;lat;lon;timestamp;P1;P2;P0
46302;PMS7003;32029;51.358;5.628;2023-04-24T00:00:47;0.00;0.00;0.00
46302;PMS7003;32029;51.358;5.628;2023-04-24T00:03:14;0.00;0.00;0.00
46302;PMS7003;32029;51.358;5.628;2023-04-24T00:05:41;0.00;0.00;0.00
46302;PMS7003;32029;51.358;5.628;2023-04-24T00:08:08;0.00;0.00;0.00
46302;PMS7003;32029;51.358;5.628;2023-04-24T00:10:34;1.33;1.33;1.00
46302;PMS7003;32029;51.358;5.628;2023-04-24T00:13:01;1.00;1.00;0.33
46302;PMS7003;32029;51.358;5.628;2023-04-24T00:15:28;1.00;1.00;0.33
46302;PMS7003;32029;51.358;5.628;2023-04-24T00:17:55;0.33;0.33;0.00
46302;PMS7003;32029;51.358;5.628;2023-04-24T00:20:21;1.33;1.00;0.00
46302;PMS7003;32029;51.358;5.628;2023-04-24T00:22:48;0.00;0.00;0.00
46302;PMS7003;32029;51.358;5.628;2023-04-24T00:25:15;1.00;0.00;0.00
46302;PMS7003;32029;51.358;5.628;2023-04-24T00:27:42;1.00;1.00;1.00
46302;PMS7003;32029;51.358;5.628;2023-04-24T00:30:10;1.00;1.00;0.67
46302;PMS7003;32029;51.358;5.628;2023-04-24T00:32:36;1.00;1.00;0.33
46302;PMS7003;32029;51.358;5.628;2023-04-24T00:35:04;1.33;1.00;1.00
46302;PMS7003;32029;51.358;5.628;2023-04-24T00:37:32;2.00;1.00;1.00
46302;PMS7003;32029;51.358;5.628;2023-04-24T00:39:58;2.33;1.33;1.00
46302;PMS7003;32029;51.358;5.628;2023-04-24T00:42:25;3.00;3.00;2.00
46302;PMS7003;32029;51.358;5.628;2023-04-24T00:44:52;0.67;0.67;0.00
46302;PMS7003;32029;51.358;5.628;2023-04-24T00:47:19;4.00;1.00;1.00
46302;PMS7003;32029;51.358;5.628;2023-04-24T00:49:46;2.00;1.00;1.00
46302;PMS7003;32029;51.358;5.628;2023-04-24T00:52:13;1.67;1.67;1.67
46302;PMS7003;32029;51.358;5.628;2023-04-24T00:54:44;1.33;1.33;1.00
46302;PMS7003;32029;51.358;5.628;2023-04-24T00:57:13;1.00;0.00;0.00
46302;PMS7003;32029;51.358;5.628;2023-04-24T00:59:42;2.00;0.00;0.00
46302;PMS7003;32029;51.358;5.628;2023-04-24T01:02:09;1.00;0.33;0.00
46302;PMS7003;32029;51.358;5.628;2023-04-24T01:04:37;0.00;0.00;0.00
46302;PMS7003;32029;51.358;5.628;2023-04-24T01:07:04;1.67;1.67;1.00
46302;PMS7003;32029;51.358;5.628;2023-04-24T01:09:40;2.33;2.33;1.67
46302;PMS7003;32029;51.358;5.628;2023-04-24T01:12:08;2.00;1.00;1.00
46302;PMS7003;32029;51.358;5.628;2023-04-24T01:14:35;1.33;1.33;1.00
46302;PMS7003;32029;51.358;5.628;2023-04-24T01:17:02;2.00;2.00;1.67
46302;PMS7003;32029;51.358;5.628;2023-04-24T01:19:29;1.00;1.00;1.00
46302;PMS7003;32029;51.358;5.628;2023-04-24T01:21:57;0.00;0.00;0.00
46302;PMS7003;32029;51.358;5.628;2023-04-24T01:24:25;3.00;1.00;1.00
46302;PMS7003;32029;51.358;5.628;2023-04-24T01:26:52;2.67;1.00;0.67
46302;PMS7003;32029;51.358;5.628;2023-04-24T01:29:19;2.67;2.00;1.67
46302;PMS7003;32029;51.358;5.628;2023-04-24T01:31:46;3.67;2.33;1.67
46302;PMS7003;32029;51.358;5.628;2023-04-24T01:34:13;3.00;2.00;2.00
46302;PMS7003;32029;51.358;5.628;2023-04-24T01:36:40;3.00;1.00;1.00
46302;PMS7003;32029;51.358;5.628;2023-04-24T01:39:07;3.00;1.00;1.00
46302;PMS7003;32029;51.358;5.628;2023-04-24T01:41:34;1.00;1.00;0.67
46302;PMS7003;32029;51.358;5.628;2023-04-24T01:44:01;2.00;0.00;0.00
46302;PMS7003;32029;51.358;5.628;2023-04-24T01:46:28;1.00;1.00;1.00
46302;PMS7003;32029;51.358;5.628;2023-04-24T01:48:57;0.33;0.33;0.33
46302;PMS7003;32029;51.358;5.628;2023-04-24T01:51:26;3.00;1.00;1.00
46302;PMS7003;32029;51.358;5.628;2023-04-24T01:53:53;2.00;1.00;1.00
46302;PMS7003;32029;51.358;5.628;2023-04-24T01:56:20;0.00;0.00;0.00
46302;PMS7003;32029;51.358;5.628;2023-04-24T01:58:48;3.00;2.00;2.00
46302;PMS7003;32029;51.358;5.628;2023-04-24T02:01:19;5.00;3.00;1.67
46302;PMS7003;32029;51.358;5.628;2023-04-24T02:03:47;2.33;2.00;1.00
46302;PMS7003;32029;51.358;5.628;2023-04-24T02:06:13;3.33;2.00;2.00
46302;PMS7003;32029;51.358;5.628;2023-04-24T02:08:40;0.00;0.00;0.00
46302;PMS7003;32029;51.358;5.628;2023-04-24T02:11:08;3.67;1.33;1.00
46302;PMS7003;32029;51.358;5.628;2023-04-24T02:13:35;1.00;1.00;1.00
46302;PMS7003;32029;51.358;5.628;2023-04-24T02:16:02;2.00;2.00;2.00
46302;PMS7003;32029;51.358;5.628;2023-04-24T02:18:28;2.00;1.00;1.00
46302;PMS7003;32029;51.358;5.628;2023-04-24T02:20:55;3.33;3.33;2.33
46302;PMS7003;32029;51.358;5.628;2023-04-24T02:23:22;1.00;1.00;1.00
46302;PMS7003;32029;51.358;5.628;2023-04-24T02:25:49;1.67;0.67;0.67
46302;PMS7003;32029;51.358;5.628;2023-04-24T02:28:15;2.00;2.00;1.00
46302;PMS7003;32029;51.358;5.628;2023-04-24T02:30:42;2.00;0.00;0.00
46302;PMS7003;32029;51.358;5.628;2023-04-24T02:33:09;2.00;2.00;1.00
46302;PMS7003;32029;51.358;5.628;2023-04-24T02:35:35;1.33;1.33;1.00
46302;PMS7003;32029;51.358;5.628;2023-04-24T02:38:02;1.00;1.00;1.00
46302;PMS7003;32029;51.358;5.628;2023-04-24T02:40:29;2.00;2.00;2.00
46302;PMS7003;32029;51.358;5.628;2023-04-24T02:42:56;3.00;1.00;0.33
46302;PMS7003;32029;51.358;5.628;2023-04-24T02:45:23;4.00;2.00;2.00
46302;PMS7003;32029;51.358;5.628;2023-04-24T02:47:49;2.33;2.33;1.33
46302;PMS7003;32029;51.358;5.628;2023-04-24T02:50:16;3.00;1.67;1.67
46302;PMS7003;32029;51.358;5.628;2023-04-24T02:52:43;3.00;1.00;1.00
46302;PMS7003;32029;51.358;5.628;2023-04-24T02:55:10;0.00;0.00;0.00
46302;PMS7003;32029;51.358;5.628;2023-04-24T02:57:36;1.67;1.67;1.00
46302;PMS7003;32029;51.358;5.628;2023-04-24T03:00:03;2.00;0.00;0.00
46302;PMS7003;32029;51.358;5.628;2023-04-24T03:02:33;2.00;2.00;1.33
46302;PMS7003;32029;51.358;5.628;2023-04-24T03:05:00;2.00;1.00;1.00
46302;PMS7003;32029;51.358;5.628;2023-04-24T03:07:28;1.33;1.33;1.00
46302;PMS7003;32029;51.358;5.628;2023-04-24T03:09:54;1.00;1.00;0.00
46302;PMS7003;32029;51.358;5.628;2023-04-24T03:12:23;3.00;2.00;1.00
46302;PMS7003;32029;51.358;5.628;2023-04-24T03:14:50;1.00;1.00;1.00
46302;PMS7003;32029;51.358;5.628;2023-04-24T03:17:18;3.00;2.00;1.67
46302;PMS7003;32029;51.358;5.628;2023-04-24T03:19:44;1.00;1.00;1.00
46302;PMS7003;32029;51.358;5.628;2023-04-24T03:22:11;2.67;2.00;2.00
46302;PMS7003;32029;51.358;5.628;2023-04-24T03:24:38;1.00;1.00;1.00
46302;PMS7003;32029;51.358;5.628;2023-04-24T03:27:05;2.00;2.00;1.00
46302;PMS7003;32029;51.358;5.628;2023-04-24T03:29:31;1.00;0.00;0.00
46302;PMS7003;32029;51.358;5.628;2023-04-24T03:31:58;0.67;0.00;0.00
46302;PMS7003;32029;51.358;5.628;2023-04-24T03:34:25;0.67;0.67;0.67
46302;PMS7003;32029;51.358;5.628;2023-04-24T03:36:51;1.00;0.00;0.00
46302;PMS7003;32029;51.358;5.628;2023-04-24T03:39:18;2.00;1.00;1.00
46302;PMS7003;32029;51.358;5.628;2023-04-24T03:41:45;2.00;1.00;0.67
46302;PMS7003;32029;51.358;5.628;2023-04-24T03:44:12;2.33;1.33;1.00
46302;PMS7003;32029;51.358;5.628;2023-04-24T03:46:38;0.33;0.33;0.00
46302;PMS7003;32029;51.358;5.628;2023-04-24T03:49:05;1.00;1.00;1.00
46302;PMS7003;32029;51.358;5.628;2023-04-24T03:51:32;1.67;1.00;1.00
46302;PMS7003;32029;51.358;5.628;2023-04-24T03:53:58;1.67;1.67;1.67
46302;PMS7003;32029;51.358;5.628;2023-04-24T03:56:25;2.00;1.00;0.67
46302;PMS7003;32029;51.358;5.628;2023-04-24T03:58:52;2.00;1.00;0.67
46302;PMS7003;32029;51.358;5.628;2023-04-24T04:01:18;1.67;1.00;1.00
46302;PMS7003;32029;51.358;5.628;2023-04-24T04:03:46;1.33;1.33;1.00
46302;PMS7003;32029;51.358;5.628;2023-04-24T04:06:13;0.67;0.00;0.00
46302;PMS7003;32029;51.358;5.628;2023-04-24T04:08:40;3.67;2.00;2.00
46302;PMS7003;32029;51.358;5.628;2023-04-24T04:11:07;2.00;1.00;1.00
46302;PMS7003;32029;51.358;5.628;2023-04-24T04:13:34;0.00;0.00;0.00
46302;PMS7003;32029;51.358;5.628;2023-04-24T04:16:00;0.00;0.00;0.00
46302;PMS7003;32029;51.358;5.628;2023-04-24T04:18:27;2.00;2.00;2.00
46302;PMS7003;32029;51.358;5.628;2023-04-24T04:20:54;2.00;0.67;0.00
46302;PMS7003;32029;51.358;5.628;2023-04-24T04:23:21;2.00;1.00;1.00
46302;PMS7003;32029;51.358;5.628;2023-04-24T04:25:47;0.00;0.00;0.00
46302;PMS7003;32029;51.358;5.628;2023-04-24T04:28:14;0.00;0.00;0.00
46302;PMS7003;32029;51.358;5.628;2023-04-24T04:30:41;0.00;0.00;0.00
46302;PMS7003;32029;51.358;5.628;2023-04-24T04:33:08;0.00;0.00;0.00
46302;PMS7003;32029;51.358;5.628;2023-04-24T04:35:36;1.33;0.00;0.00
46302;PMS7003;32029;51.358;5.628;2023-04-24T04:38:03;1.33;0.00;0.00
46302;PMS7003;32029;51.358;5.628;2023-04-24T04:40:31;1.00;1.00;1.00
46302;PMS7003;32029;51.358;5.628;2023-04-24T04:42:57;1.00;1.00;1.00
46302;PMS7003;32029;51.358;5.628;2023-04-24T04:45:24;0.00;0.00;0.00
46302;PMS7003;32029;51.358;5.628;2023-04-24T04:47:53;3.00;1.00;0.00
46302;PMS7003;32029;51.358;5.628;2023-04-24T04:50:21;1.00;0.00;0.00
46302;PMS7003;32029;51.358;5.628;2023-04-24T04:52:49;0.00;0.00;0.00
46302;PMS7003;32029;51.358;5.628;2023-04-24T04:55:15;1.00;0.00;0.00
46302;PMS7003;32029;51.358;5.628;2023-04-24T04:57:42;0.67;0.00;0.00
46302;PMS7003;32029;51.358;5.628;2023-04-24T05:00:09;0.00;0.00;0.00
46302;PMS7003;32029;51.358;5.628;2023-04-24T05:02:37;2.00;1.00;1.00
46302;PMS7003;32029;51.358;5.628;2023-04-24T05:05:04;0.00;0.00;0.00
46302;PMS7003;32029;51.358;5.628;2023-04-24T05:07:32;0.00;0.00;0.00
46302;PMS7003;32029;51.358;5.628;2023-04-24T05:09:58;0.00;0.00;0.00
46302;PMS7003;32029;51.358;5.628;2023-04-24T05:12:25;0.00;0.00;0.00
46302;PMS7003;32029;51.358;5.628;2023-04-24T05:14:52;0.00;0.00;0.00
46302;PMS7003;32029;51.358;5.628;2023-04-24T05:17:18;0.00;0.00;0.00
46302;PMS7003;32029;51.358;5.628;2023-04-24T05:19:45;1.67;1.00;0.00
46302;PMS7003;32029;51.358;5.628;2023-04-24T05:22:12;0.00;0.00;0.00
46302;PMS7003;32029;51.358;5.628;2023-04-24T05:24:39;1.00;0.00;0.00
46302;PMS7003;32029;51.358;5.628;2023-04-24T05:27:05;0.00;0.00;0.00
46302;PMS7003;32029;51.358;5.628;2023-04-24T05:29:32;0.00;0.00;0.00
46302;PMS7003;32029;51.358;5.628;2023-04-24T05:31:59;0.00;0.00;0.00
46302;PMS7003;32029;51.358;5.628;2023-04-24T05:34:26;0.00;0.00;0.00
46302;PMS7003;32029;51.358;5.628;2023-04-24T05:36:53;1.00;0.00;0.00
46302;PMS7003;32029;51.358;5.628;2023-04-24T05:39:20;1.00;0.00;0.00
46302;PMS7003;32029;51.358;5.628;2023-04-24T05:41:46;0.00;0.00;0.00
46302;PMS7003;32029;51.358;5.628;2023-04-24T05:44:13;0.00;0.00;0.00
46302;PMS7003;32029;51.358;5.628;2023-04-24T05:46:40;0.00;0.00;0.00
46302;PMS7003;32029;51.358;5.628;2023-04-24T05:49:06;0.00;0.00;0.00
46302;PMS7003;32029;51.358;5.628;2023-04-24T05:51:33;0.00;0.00;0.00
46302;PMS7003;32029;51.358;5.628;2023-04-24T05:54:00;0.00;0.00;0.00
46302;PMS7003;32029;51.358;5.628;2023-04-24T05:56:27;0.00;0.00;0.00
46302;PMS7003;32029;51.358;5.628;2023-04-24T05:58:54;0.00;0.00;0.00
46302;PMS7003;32029;51.358;5.628;2023-04-24T06:01:21;0.00;0.00;0.00
46302;PMS7003;32029;51.358;5.628;2023-04-24T06:03:48;0.00;0.00;0.00
46302;PMS7003;32029;51.358;5.628;2023-04-24T06:06:15;1.00;0.00;0.00
46302;PMS7003;32029;51.358;5.628;2023-04-24T06:08:42;0.00;0.00;0.00
46302;PMS7003;32029;51.358;5.628;2023-04-24T06:11:10;0.00;0.00;0.00
46302;PMS7003;32029;51.358;5.628;2023-04-24T06:13:37;0.25;0.00;0.00
46302;PMS7003;32029;51.358;5.628;2023-04-24T06:16:04;0.00;0.00;0.00
46302;PMS7003;32029;51.358;5.628;2023-04-24T06:18:31;0.00;0.00;0.00
46302;PMS7003;32029;51.358;5.628;2023-04-24T06:20:57;0.00;0.00;0.00
46302;PMS7003;32029;51.358;5.628;2023-04-24T06:23:24;0.00;0.00;0.00
46302;PMS7003;32029;51.358;5.628;2023-04-24T06:25:51;0.00;0.00;0.00
46302;PMS7003;32029;51.358;5.628;2023-04-24T06:28:18;0.00;0.00;0.00
46302;PMS7003;32029;51.358;5.628;2023-04-24T06:30:45;0.00;0.00;0.00
46302;PMS7003;32029;51.358;5.628;2023-04-24T06:33:11;1.00;0.00;0.00
46302;PMS7003;32029;51.358;5.628;2023-04-24T06:35:38;0.00;0.00;0.00
46302;PMS7003;32029;51.358;5.628;2023-04-24T06:38:05;0.00;0.00;0.00
46302;PMS7003;32029;51.358;5.628;2023-04-24T06:40:32;0.00;0.00;0.00
46302;PMS7003;32029;51.358;5.628;2023-04-24T06:42:59;0.00;0.00;0.00
46302;PMS7003;32029;51.358;5.628;2023-04-24T06:45:29;0.00;0.00;0.00
46302;PMS7003;32029;51.358;5.628;2023-04-24T06:47:56;0.00;0.00;0.00
46302;PMS7003;32029;51.358;5.628;2023-04-24T06:50:22;0.00;0.00;0.00
46302;PMS7003;32029;51.358;5.628;2023-04-24T06:52:49;0.00;0.00;0.00
46302;PMS7003;32029;51.358;5.628;2023-04-24T06:55:16;0.00;0.00;0.00
46302;PMS7003;32029;51.358;5.628;2023-04-24T06:57:42;0.00;0.00;0.00
46302;PMS7003;32029;51.358;5.628;2023-04-24T07:00:11;0.00;0.00;0.00
46302;PMS7003;32029;51.358;5.628;2023-04-24T07:02:38;0.00;0.00;0.00
46302;PMS7003;32029;51.358;5.628;2023-04-24T07:05:05;0.00;0.00;0.00
46302;PMS7003;32029;51.358;5.628;2023-04-24T07:07:31;0.00;0.00;0.00
46302;PMS7003;32029;51.358;5.628;2023-04-24T07:09:58;0.33;0.33;0.00
46302;PMS7003;32029;51.358;5.628;2023-04-24T07:12:25;0.33;0.00;0.00
46302;PMS7003;32029;51.358;5.628;2023-04-24T07:14:51;0.00;0.00;0.00
46302;PMS7003;32029;51.358;5.628;2023-04-24T07:17:18;0.00;0.00;0.00
46302;PMS7003;32029;51.358;5.628;2023-04-24T07:19:45;1.00;1.00;0.00
46302;PMS7003;32029;51.358;5.628;2023-04-24T07:22:11;1.00;1.00;1.00
46302;PMS7003;32029;51.358;5.628;2023-04-24T07:24:45;3.00;1.00;1.00
46302;PMS7003;32029;51.358;5.628;2023-04-24T07:27:12;1.00;1.00;0.33
46302;PMS7003;32029;51.358;5.628;2023-04-24T07:29:42;0.60;0.20;0.00
46302;PMS7003;32029;51.358;5.628;2023-04-24T07:32:09;0.00;0.00;0.00
46302;PMS7003;32029;51.358;5.628;2023-04-24T07:34:35;2.00;1.00;1.00
46302;PMS7003;32029;51.358;5.628;2023-04-24T07:37:02;0.00;0.00;0.00
46302;PMS7003;32029;51.358;5.628;2023-04-24T07:39:29;1.00;0.00;0.00
46302;PMS7003;32029;51.358;5.628;2023-04-24T07:41:56;0.00;0.00;0.00
46302;PMS7003;32029;51.358;5.628;2023-04-24T07:44:24;0.00;0.00;0.00
46302;PMS7003;32029;51.358;5.628;2023-04-24T07:46:52;0.00;0.00;0.00
46302;PMS7003;32029;51.358;5.628;2023-04-24T07:49:19;0.00;0.00;0.00
46302;PMS7003;32029;51.358;5.628;2023-04-24T07:51:45;1.00;0.00;0.00
46302;PMS7003;32029;51.358;5.628;2023-04-24T07:54:12;0.00;0.00;0.00
46302;PMS7003;32029;51.358;5.628;2023-04-24T07:56:39;0.00;0.00;0.00
46302;PMS7003;32029;51.358;5.628;2023-04-24T07:59:09;0.00;0.00;0.00
46302;PMS7003;32029;51.358;5.628;2023-04-24T08:01:36;0.00;0.00;0.00
46302;PMS7003;32029;51.358;5.628;2023-04-24T08:04:03;0.00;0.00;0.00
46302;PMS7003;32029;51.358;5.628;2023-04-24T08:06:30;0.00;0.00;0.00
46302;PMS7003;32029;51.358;5.628;2023-04-24T08:08:58;0.00;0.00;0.00
46302;PMS7003;32029;51.358;5.628;2023-04-24T08:11:26;0.00;0.00;0.00
46302;PMS7003;32029;51.358;5.628;2023-04-24T08:13:53;0.00;0.00;0.00
46302;PMS7003;32029;51.358;5.628;2023-04-24T08:16:21;0.00;0.00;0.00
46302;PMS7003;32029;51.358;5.628;2023-04-24T08:18:47;0.00;0.00;0.00
46302;PMS7003;32029;51.358;5.628;2023-04-24T08:21:14;0.00;0.00;0.00
46302;PMS7003;32029;51.358;5.628;2023-04-24T08:23:43;0.00;0.00;0.00
46302;PMS7003;32029;51.358;5.628;2023-04-24T08:26:11;0.00;0.00;0.00
46302;PMS7003;32029;51.358;5.628;2023-04-24T08:28:38;0.00;0.00;0.00
46302;PMS7003;32029;51.358;5.628;2023-04-24T08:31:05;0.00;0.00;0.00
46302;PMS7003;32029;51.358;5.628;2023-04-24T08:33:32;0.00;0.00;0.00
46302;PMS7003;32029;51.358;5.628;2023-04-24T08:36:04;0.00;0.00;0.00
46302;PMS7003;32029;51.358;5.628;2023-04-24T08:38:31;0.00;0.00;0.00
46302;PMS7003;32029;51.358;5.628;2023-04-24T08:40:59;0.00;0.00;0.00
46302;PMS7003;32029;51.358;5.628;2023-04-24T08:43:27;0.00;0.00;0.00
46302;PMS7003;32029;51.358;5.628;2023-04-24T08:45:56;0.00;0.00;0.00
46302;PMS7003;32029;51.358;5.628;2023-04-24T08:48:23;0.00;0.00;0.00
46302;PMS7003;32029;51.358;5.628;2023-04-24T08:50:51;0.00;0.00;0.00
46302;PMS7003;32029;51.358;5.628;2023-04-24T08:53:18;0.00;0.00;0.00
46302;PMS7003;32029;51.358;5.628;2023-04-24T08:55:46;0.00;0.00;0.00
46302;PMS7003;32029;51.358;5.628;2023-04-24T08:58:16;0.00;0.00;0.00
46302;PMS7003;32029;51.358;5.628;2023-04-24T09:00:43;0.00;0.00;0.00
46302;PMS7003;32029;51.358;5.628;2023-04-24T09:03:13;0.00;0.00;0.00
46302;PMS7003;32029;51.358;5.628;2023-04-24T09:05:46;0.00;0.00;0.00
46302;PMS7003;32029;51.358;5.628;2023-04-24T09:08:14;0.00;0.00;0.00
46302;PMS7003;32029;51.358;5.628;2023-04-24T09:10:42;0.00;0.00;0.00
46302;PMS7003;32029;51.358;5.628;2023-04-24T09:13:09;0.00;0.00;0.00
46302;PMS7003;32029;51.358;5.628;2023-04-24T09:15:39;0.00;0.00;0.00
46302;PMS7003;32029;51.358;5.628;2023-04-24T09:18:07;0.00;0.00;0.00
46302;PMS7003;32029;51.358;5.628;2023-04-24T09:20:33;0.00;0.00;0.00
46302;PMS7003;32029;51.358;5.628;2023-04-24T09:23:02;0.00;0.00;0.00
46302;PMS7003;32029;51.358;5.628;2023-04-24T09:25:32;0.00;0.00;0.00
46302;PMS7003;32029;51.358;5.628;2023-04-24T09:28:00;0.00;0.00;0.00
46302;PMS7003;32029;51.358;5.628;2023-04-24T09:30:30;0.00;0.00;0.00
46302;PMS7003;32029;51.358;5.628;2023-04-24T09:33:16;0.00;0.00;0.00
46302;PMS7003;32029;51.358;5.628;2023-04-24T09:35:48;0.00;0.00;0.00
46302;PMS7003;32029;51.358;5.628;2023-04-24T09:38:16;0.00;0.00;0.00
46302;PMS7003;32029;51.358;5.628;2023-04-24T09:40:43;0.00;0.00;0.00
46302;PMS7003;32029;51.358;5.628;2023-04-24T09:43:10;0.00;0.00;0.00
46302;PMS7003;32029;51.358;5.628;2023-04-24T09:45:38;0.00;0.00;0.00
46302;PMS7003;32029;51.358;5.628;2023-04-24T09:48:08;0.00;0.00;0.00
46302;PMS7003;32029;51.358;5.628;2023-04-24T09:50:36;0.00;0.00;0.00
46302;PMS7003;32029;51.358;5.628;2023-04-24T09:53:04;0.00;0.00;0.00
46302;PMS7003;32029;51.358;5.628;2023-04-24T09:55:38;0.00;0.00;0.00
46302;PMS7003;32029;51.358;5.628;2023-04-24T09:58:07;0.00;0.00;0.00
46302;PMS7003;32029;51.358;5.628;2023-04-24T10:00:34;0.00;0.00;0.00
46302;PMS7003;32029;51.358;5.628;2023-04-24T10:03:02;0.00;0.00;0.00
46302;PMS7003;32029;51.358;5.628;2023-04-24T10:05:31;0.00;0.00;0.00
46302;PMS7003;32029;51.358;5.628;2023-04-24T10:08:08;0.00;0.00;0.00
46302;PMS7003;32029;51.358;5.628;2023-04-24T10:10:40;0.00;0.00;0.00
46302;PMS7003;32029;51.358;5.628;2023-04-24T10:13:09;0.00;0.00;0.00
46302;PMS7003;32029;51.358;5.628;2023-04-24T10:15:37;0.00;0.00;0.00
46302;PMS7003;32029;51.358;5.628;2023-04-24T10:18:05;0.00;0.00;0.00
46302;PMS7003;32029;51.358;5.628;2023-04-24T10:20:33;0.00;0.00;0.00
46302;PMS7003;32029;51.358;5.628;2023-04-24T10:23:01;0.00;0.00;0.00
46302;PMS7003;32029;51.358;5.628;2023-04-24T10:25:30;0.00;0.00;0.00
46302;PMS7003;32029;51.358;5.628;2023-04-24T10:27:58;0.00;0.00;0.00
46302;PMS7003;32029;51.358;5.628;2023-04-24T10:30:27;0.00;0.00;0.00
46302;PMS7003;32029;51.358;5.628;2023-04-24T10:32:56;0.00;0.00;0.00
46302;PMS7003;32029;51.358;5.628;2023-04-24T10:35:22;0.00;0.00;0.00
46302;PMS7003;32029;51.358;5.628;2023-04-24T10:37:56;0.00;0.00;0.00
46302;PMS7003;32029;51.358;5.628;2023-04-24T10:40:31;0.00;0.00;0.00
46302;PMS7003;32029;51.358;5.628;2023-04-24T10:43:02;0.00;0.00;0.00
46302;PMS7003;32029;51.358;5.628;2023-04-24T10:45:32;0.00;0.00;0.00
46302;PMS7003;32029;51.358;5.628;2023-04-24T10:48:02;0.00;0.00;0.00
46302;PMS7003;32029;51.358;5.628;2023-04-24T10:50:43;0.00;0.00;0.00
46302;PMS7003;32029;51.358;5.628;2023-04-24T10:53:18;0.00;0.00;0.00
46302;PMS7003;32029;51.358;5.628;2023-04-24T10:55:51;0.00;0.00;0.00
46302;PMS7003;32029;51.358;5.628;2023-04-24T10:58:24;0.00;0.00;0.00
46302;PMS7003;32029;51.358;5.628;2023-04-24T11:01:01;0.00;0.00;0.00
46302;PMS7003;32029;51.358;5.628;2023-04-24T11:03:29;0.00;0.00;0.00
46302;PMS7003;32029;51.358;5.628;2023-04-24T11:08:37;0.00;0.00;0.00
46302;PMS7003;32029;51.358;5.628;2023-04-24T11:16:32;0.00;0.00;0.00
46302;PMS7003;32029;51.358;5.628;2023-04-24T11:21:38;0.00;0.00;0.00
46302;PMS7003;32029;51.358;5.628;2023-04-24T11:27:14;0.00;0.00;0.00
46302;PMS7003;32029;51.358;5.628;2023-04-24T11:29:49;0.00;0.00;0.00
46302;PMS7003;32029;51.358;5.628;2023-04-24T11:32:36;0.00;0.00;0.00
46302;PMS7003;32029;51.358;5.628;2023-04-24T11:37:42;0.00;0.00;0.00
46302;PMS7003;32029;51.358;5.628;2023-04-24T11:40:12;0.00;0.00;0.00
46302;PMS7003;32029;51.358;5.628;2023-04-24T11:42:44;0.00;0.00;0.00
46302;PMS7003;32029;51.358;5.628;2023-04-24T11:45:20;0.00;0.00;0.00
46302;PMS7003;32029;51.358;5.628;2023-04-24T11:47:48;0.00;0.00;0.00
46302;PMS7003;32029;51.358;5.628;2023-04-24T11:50:17;0.00;0.00;0.00
46302;PMS7003;32029;51.358;5.628;2023-04-24T11:52:46;0.00;0.00;0.00
46302;PMS7003;32029;51.358;5.628;2023-04-24T11:57:47;0.00;0.00;0.00
46302;PMS7003;32029;51.358;5.628;2023-04-24T12:00:16;0.00;0.00;0.00
46302;PMS7003;32029;51.358;5.628;2023-04-24T12:02:51;0.00;0.00;0.00
46302;PMS7003;32029;51.358;5.628;2023-04-24T12:05:28;0.00;0.00;0.00
46302;PMS7003;32029;51.358;5.628;2023-04-24T12:07:57;0.00;0.00;0.00
46302;PMS7003;32029;51.358;5.628;2023-04-24T12:10:26;0.00;0.00;0.00
46302;PMS7003;32029;51.358;5.628;2023-04-24T12:12:55;0.00;0.00;0.00
46302;PMS7003;32029;51.358;5.628;2023-04-24T12:15:23;0.00;0.00;0.00
46302;PMS7003;32029;51.358;5.628;2023-04-24T12:17:50;0.00;0.00;0.00
46302;PMS7003;32029;51.358;5.628;2023-04-24T12:20:23;0.00;0.00;0.00
46302;PMS7003;32029;51.358;5.628;2023-04-24T12:22:52;0.00;0.00;0.00
46302;PMS7003;32029;51.358;5.628;2023-04-24T12:25:24;0.00;0.00;0.00
46302;PMS7003;32029;51.358;5.628;2023-04-24T12:27:53;0.00;0.00;0.00
46302;PMS7003;32029;51.358;5.628;2023-04-24T12:30:25;0.00;0.00;0.00
46302;PMS7003;32029;51.358;5.628;2023-04-24T12:32:56;0.00;0.00;0.00
46302;PMS7003;32029;51.358;5.628;2023-04-24T12:35:24;0.00;0.00;0.00
46302;PMS7003;32029;51.358;5.628;2023-04-24T12:37:53;0.00;0.00;0.00
46302;PMS7003;32029;51.358;5.628;2023-04-24T12:40:20;0.00;0.00;0.00
46302;PMS7003;32029;51.358;5.628;2023-04-24T12:42:48;0.00;0.00;0.00
46302;PMS7003;32029;51.358;5.628;2023-04-24T12:45:17;0.00;0.00;0.00
46302;PMS7003;32029;51.358;5.628;2023-04-24T12:47:45;0.00;0.00;0.00
46302;PMS7003;32029;51.358;5.628;2023-04-24T12:50:12;0.00;0.00;0.00
46302;PMS7003;32029;51.358;5.628;2023-04-24T12:52:41;0.00;0.00;0.00
46302;PMS7003;32029;51.358;5.628;2023-04-24T12:55:09;0.00;0.00;0.00
46302;PMS7003;32029;51.358;5.628;2023-04-24T12:57:36;0.00;0.00;0.00
46302;PMS7003;32029;51.358;5.628;2023-04-24T13:00:04;0.00;0.00;0.00
46302;PMS7003;32029;51.358;5.628;2023-04-24T13:02:32;0.00;0.00;0.00
46302;PMS7003;32029;51.358;5.628;2023-04-24T13:05:00;0.00;0.00;0.00
46302;PMS7003;32029;51.358;5.628;2023-04-24T13:07:27;0.00;0.00;0.00
46302;PMS7003;32029;51.358;5.628;2023-04-24T13:09:54;0.00;0.00;0.00
46302;PMS7003;32029;51.358;5.628;2023-04-24T13:12:22;0.00;0.00;0.00
46302;PMS7003;32029;51.358;5.628;2023-04-24T13:14:50;0.00;0.00;0.00
46302;PMS7003;32029;51.358;5.628;2023-04-24T13:17:17;0.00;0.00;0.00
46302;PMS7003;32029;51.358;5.628;2023-04-24T13:19:44;0.00;0.00;0.00
46302;PMS7003;32029;51.358;5.628;2023-04-24T13:22:11;0.00;0.00;0.00
46302;PMS7003;32029;51.358;5.628;2023-04-24T13:24:40;0.00;0.00;0.00
46302;PMS7003;32029;51.358;5.628;2023-04-24T13:27:07;0.00;0.00;0.00
46302;PMS7003;32029;51.358;5.628;2023-04-24T13:29:36;0.00;0.00;0.00
46302;PMS7003;32029;51.358;5.628;2023-04-24T13:32:03;0.00;0.00;0.00
46302;PMS7003;32029;51.358;5.628;2023-04-24T13:34:30;0.00;0.00;0.00
46302;PMS7003;32029;51.358;5.628;2023-04-24T13:36:57;0.00;0.00;0.00
46302;PMS7003;32029;51.358;5.628;2023-04-24T13:39:24;0.00;0.00;0.00
46302;PMS7003;32029;51.358;5.628;2023-04-24T13:41:55;0.00;0.00;0.00
46302;PMS7003;32029;51.358;5.628;2023-04-24T13:44:22;0.00;0.00;0.00
46302;PMS7003;32029;51.358;5.628;2023-04-24T13:46:50;0.00;0.00;0.00
46302;PMS7003;32029;51.358;5.628;2023-04-24T13:49:20;0.00;0.00;0.00
46302;PMS7003;32029;51.358;5.628;2023-04-24T13:51:47;0.00;0.00;0.00
46302;PMS7003;32029;51.358;5.628;2023-04-24T13:54:14;0.00;0.00;0.00
46302;PMS7003;32029;51.358;5.628;2023-04-24T13:56:41;0.33;0.00;0.00
46302;PMS7003;32029;51.358;5.628;2023-04-24T13:59:07;0.33;0.00;0.00
46302;PMS7003;32029;51.358;5.628;2023-04-24T14:01:35;0.00;0.00;0.00
46302;PMS7003;32029;51.358;5.628;2023-04-24T14:04:01;0.00;0.00;0.00
46302;PMS7003;32029;51.358;5.628;2023-04-24T14:06:28;0.00;0.00;0.00
46302;PMS7003;32029;51.358;5.628;2023-04-24T14:08:54;0.00;0.00;0.00
46302;PMS7003;32029;51.358;5.628;2023-04-24T14:11:21;0.00;0.00;0.00
46302;PMS7003;32029;51.358;5.628;2023-04-24T14:13:48;0.00;0.00;0.00
46302;PMS7003;32029;51.358;5.628;2023-04-24T14:16:15;0.00;0.00;0.00
46302;PMS7003;32029;51.358;5.628;2023-04-24T14:18:42;0.00;0.00;0.00
46302;PMS7003;32029;51.358;5.628;2023-04-24T14:21:08;0.00;0.00;0.00
46302;PMS7003;32029;51.358;5.628;2023-04-24T14:23:35;0.00;0.00;0.00
46302;PMS7003;32029;51.358;5.628;2023-04-24T14:26:02;1.33;0.00;0.00
46302;PMS7003;32029;51.358;5.628;2023-04-24T14:28:28;0.00;0.00;0.00
46302;PMS7003;32029;51.358;5.628;2023-04-24T14:30:55;0.00;0.00;0.00
46302;PMS7003;32029;51.358;5.628;2023-04-24T14:33:22;0.00;0.00;0.00
46302;PMS7003;32029;51.358;5.628;2023-04-24T14:35:48;0.00;0.00;0.00
46302;PMS7003;32029;51.358;5.628;2023-04-24T14:38:15;0.00;0.00;0.00
46302;PMS7003;32029;51.358;5.628;2023-04-24T14:40:42;1.67;0.00;0.00
46302;PMS7003;32029;51.358;5.628;2023-04-24T14:43:08;0.00;0.00;0.00
46302;PMS7003;32029;51.358;5.628;2023-04-24T14:45:36;0.00;0.00;0.00